Weather at Rag Wing Airport [CLOSED]

Public forecast

Using degrees Fahrenheit for public forecast. Weather courtesy of forecast.io.

Closest aviation weather report (METAR) to Rag Wing Airport

Closest report is Langlade County Airport, 5.4 nm (10.1 km) NW. Retrieved 2021/06/20 09:35 UTC (2 minutes ago):

KAIG 200935Z AUTO 02003KT 10SM CLR 11/10 A2978 RMK AO2 T01050104

Closest aviation forecast (TAF) to Rag Wing Airport

Closest forecast is Wausau Downtown Airport, 27.0 nm (50.1 km) WSW. Retrieved 2021/06/20 06:22 UTC (3 hours ago):

TAF KAUW 200520Z 2006/2106 13003KT P6SM SCT200 FM201800 16008G15KT P6SM -SHRA OVC040 FM201900 16009G16KT P6SM -SHRA OVC029 FM202000 16009G16KT 5SM SHRA OVC018 TEMPO 2020/2024 3SM -TSRA BKN008CB FM210000 17007G16KT 4SM SHRA OVC005 FM210200 27007G19KT P6SM SHRA OVC003